Andacollo, Argentina
Current Conditions -  °F | °C
As of 5:00 AM on Thursday 29 Jan 2015 (Local Time) from SCIC Reporting Station
Overcast Overcast  
Wind Chill: 55°   Ceiling: 200
Heat Index: 55°   Visibility: 6mi
Dew Point: 48°   Wind: 3mph
Humidity: 77%   Direction: 60°ENE
Pressure: 29.83"   Gusts: NA
Location:  37.05°S, 70.07°W
Report Text: SCIC 290800Z AUTO 06003KT 9999 VV002 13/09 Q1010
Loading
Personal Weather Stations






























Interactive Weather Map New forecast layout! Learn more

10-Day Weather Forecast

Advertisements
Track Severe Weather on mobile